sensor_id;sensor_type;location;lat;lon;timestamp;pressure;altitude;pressure_sealevel;temperature;humidity
5609;BME280;2826;51.354;9.588;2023-04-26T00:01:24;98205.72;;;4.40;78.08
5609;BME280;2826;51.354;9.588;2023-04-26T00:03:53;98201.44;;;4.42;77.67
5609;BME280;2826;51.354;9.588;2023-04-26T00:06:20;98208.28;;;4.42;77.59
5609;BME280;2826;51.354;9.588;2023-04-26T00:08:46;98218.63;;;4.39;77.64
5609;BME280;2826;51.354;9.588;2023-04-26T00:11:20;98215.22;;;4.34;77.89
5609;BME280;2826;51.354;9.588;2023-04-26T00:13:48;98214.38;;;4.36;77.86
5609;BME280;2826;51.354;9.588;2023-04-26T00:16:14;98215.19;;;4.37;77.61
5609;BME280;2826;51.354;9.588;2023-04-26T00:18:41;98210.97;;;4.32;77.46
5609;BME280;2826;51.354;9.588;2023-04-26T00:21:09;98216.09;;;4.34;77.64
5609;BME280;2826;51.354;9.588;2023-04-26T00:23:35;98211.88;;;4.28;77.77
5609;BME280;2826;51.354;9.588;2023-04-26T00:26:02;98210.19;;;4.27;78.03
5609;BME280;2826;51.354;9.588;2023-04-26T00:28:28;98212.78;;;4.24;77.87
5609;BME280;2826;51.354;9.588;2023-04-26T00:30:55;98213.69;;;4.22;78.04
5609;BME280;2826;51.354;9.588;2023-04-26T00:33:22;98207.72;;;4.20;78.01
5609;BME280;2826;51.354;9.588;2023-04-26T00:35:49;98212.88;;;4.18;77.94
5609;BME280;2826;51.354;9.588;2023-04-26T00:38:17;98210.34;;;4.16;78.00
5609;BME280;2826;51.354;9.588;2023-04-26T00:40:44;98206.09;;;4.12;78.04
5609;BME280;2826;51.354;9.588;2023-04-26T00:43:10;98208.69;;;4.11;78.11
5609;BME280;2826;51.354;9.588;2023-04-26T00:45:37;98200.19;;;4.07;78.15
5609;BME280;2826;51.354;9.588;2023-04-26T00:48:04;98207.84;;;4.10;78.40
5609;BME280;2826;51.354;9.588;2023-04-26T00:50:31;98207.84;;;4.10;78.02
5609;BME280;2826;51.354;9.588;2023-04-26T00:52:58;98210.44;;;4.10;78.07
5609;BME280;2826;51.354;9.588;2023-04-26T00:55:28;98219.84;;;4.07;78.31
5609;BME280;2826;51.354;9.588;2023-04-26T00:57:55;98215.63;;;4.02;78.23
5609;BME280;2826;51.354;9.588;2023-04-26T01:00:21;98215.69;;;4.01;77.90
5609;BME280;2826;51.354;9.588;2023-04-26T01:02:48;98219.13;;;3.98;78.08
5609;BME280;2826;51.354;9.588;2023-04-26T01:05:15;98220.72;;;4.05;78.13
5609;BME280;2826;51.354;9.588;2023-04-26T01:07:43;98221.47;;;4.15;77.78
5609;BME280;2826;51.354;9.588;2023-04-26T01:10:10;98222.31;;;4.16;77.55
5609;BME280;2826;51.354;9.588;2023-04-26T01:12:38;98225.75;;;4.15;77.66
5609;BME280;2826;51.354;9.588;2023-04-26T01:15:06;98221.38;;;4.22;77.40
5609;BME280;2826;51.354;9.588;2023-04-26T01:17:32;98229.09;;;4.22;77.53
5609;BME280;2826;51.354;9.588;2023-04-26T01:19:59;98208.75;;;4.06;77.77
5609;BME280;2826;51.354;9.588;2023-04-26T01:22:26;98235.06;;;4.24;78.06
5609;BME280;2826;51.354;9.588;2023-04-26T01:24:55;98218.81;;;4.23;78.13
5609;BME280;2826;51.354;9.588;2023-04-26T01:27:23;98233.31;;;4.26;77.91
5609;BME280;2826;51.354;9.588;2023-04-26T01:29:49;98230.81;;;4.21;78.15
5609;BME280;2826;51.354;9.588;2023-04-26T01:32:16;98225.63;;;4.23;78.12
5609;BME280;2826;51.354;9.588;2023-04-26T01:34:43;98220.56;;;4.20;78.30
5609;BME280;2826;51.354;9.588;2023-04-26T01:37:09;98231.72;;;4.18;78.04
5609;BME280;2826;51.354;9.588;2023-04-26T01:39:36;98218.03;;;4.15;78.00
5609;BME280;2826;51.354;9.588;2023-04-26T01:42:04;98178.28;;;3.79;78.13
5609;BME280;2826;51.354;9.588;2023-04-26T01:44:31;98216.44;;;4.08;78.37
5609;BME280;2826;51.354;9.588;2023-04-26T01:46:59;98230.16;;;4.05;78.19
5609;BME280;2826;51.354;9.588;2023-04-26T01:49:26;98225.94;;;4.01;78.19
5609;BME280;2826;51.354;9.588;2023-04-26T01:51:53;98227.66;;;4.00;78.14
5609;BME280;2826;51.354;9.588;2023-04-26T01:54:22;98224.25;;;3.98;77.97
5609;BME280;2826;51.354;9.588;2023-04-26T01:56:49;98228.56;;;3.93;78.11
5609;BME280;2826;51.354;9.588;2023-04-26T01:59:16;98226.91;;;3.90;77.90
5609;BME280;2826;51.354;9.588;2023-04-26T02:01:43;98212.47;;;3.83;78.43
5609;BME280;2826;51.354;9.588;2023-04-26T02:04:10;98220.16;;;3.83;78.08
5609;BME280;2826;51.354;9.588;2023-04-26T02:06:36;98224.44;;;3.83;78.29
5609;BME280;2826;51.354;9.588;2023-04-26T02:09:03;98215.91;;;3.81;78.38
5609;BME280;2826;51.354;9.588;2023-04-26T02:11:30;98215.06;;;3.78;78.46
5609;BME280;2826;51.354;9.588;2023-04-26T02:13:57;98219.31;;;3.79;78.23
5609;BME280;2826;51.354;9.588;2023-04-26T02:16:25;98212.56;;;3.74;78.44
5609;BME280;2826;51.354;9.588;2023-04-26T02:18:52;98216.84;;;3.72;78.33
5609;BME280;2826;51.354;9.588;2023-04-26T02:21:20;98216.88;;;3.69;78.32
5609;BME280;2826;51.354;9.588;2023-04-26T02:23:47;98215.22;;;3.64;78.28
5609;BME280;2826;51.354;9.588;2023-04-26T02:26:14;98209.28;;;3.59;78.50
5609;BME280;2826;51.354;9.588;2023-04-26T02:28:42;98220.41;;;3.58;78.24
5609;BME280;2826;51.354;9.588;2023-04-26T02:31:09;98216.19;;;3.51;78.35
5609;BME280;2826;51.354;9.588;2023-04-26T02:33:37;98217.16;;;3.44;78.50
5609;BME280;2826;51.354;9.588;2023-04-26T02:36:04;98218.91;;;3.40;78.63
5609;BME280;2826;51.354;9.588;2023-04-26T02:38:32;98217.22;;;3.36;78.59
5609;BME280;2826;51.354;9.588;2023-04-26T02:41:00;98218.91;;;3.37;78.58
5609;BME280;2826;51.354;9.588;2023-04-26T02:43:28;98216.34;;;3.37;78.73
5609;BME280;2826;51.354;9.588;2023-04-26T02:45:55;98217.22;;;3.36;78.46
5609;BME280;2826;51.354;9.588;2023-04-26T02:48:23;98214.69;;;3.31;78.66
5609;BME280;2826;51.354;9.588;2023-04-26T02:50:51;98218.94;;;3.32;78.52
5609;BME280;2826;51.354;9.588;2023-04-26T02:53:18;98220.66;;;3.33;78.35
5609;BME280;2826;51.354;9.588;2023-04-26T02:55:45;98220.63;;;3.35;78.51
5609;BME280;2826;51.354;9.588;2023-04-26T02:58:11;98215.50;;;3.38;78.48
5609;BME280;2826;51.354;9.588;2023-04-26T03:00:38;98218.91;;;3.38;78.75
5609;BME280;2826;51.354;9.588;2023-04-26T03:03:05;98218.06;;;3.36;78.61
5609;BME280;2826;51.354;9.588;2023-04-26T03:05:31;98224.13;;;3.29;78.60
5609;BME280;2826;51.354;9.588;2023-04-26T03:07:59;98218.16;;;3.25;78.66
5609;BME280;2826;51.354;9.588;2023-04-26T03:10:26;98223.28;;;3.25;78.82
5609;BME280;2826;51.354;9.588;2023-04-26T03:12:52;98211.38;;;3.21;78.88
5609;BME280;2826;51.354;9.588;2023-04-26T03:15:19;98225.84;;;3.25;78.62
5609;BME280;2826;51.354;9.588;2023-04-26T03:17:46;98222.47;;;3.23;78.38
5609;BME280;2826;51.354;9.588;2023-04-26T03:20:13;98216.50;;;3.20;78.77
5609;BME280;2826;51.354;9.588;2023-04-26T03:22:40;98217.41;;;3.16;78.89
5609;BME280;2826;51.354;9.588;2023-04-26T03:25:08;98209.69;;;3.17;78.90
5609;BME280;2826;51.354;9.588;2023-04-26T03:27:35;98208.00;;;3.18;78.88
5609;BME280;2826;51.354;9.588;2023-04-26T03:30:02;98216.50;;;3.20;79.09
5609;BME280;2826;51.354;9.588;2023-04-26T03:32:32;98212.25;;;3.19;78.76
5609;BME280;2826;51.354;9.588;2023-04-26T03:34:59;98217.44;;;3.14;79.18
5609;BME280;2826;51.354;9.588;2023-04-26T03:37:25;98217.44;;;3.12;79.51
5609;BME280;2826;51.354;9.588;2023-04-26T03:39:58;98220.88;;;3.11;79.26
5609;BME280;2826;51.354;9.588;2023-04-26T03:42:26;98220.00;;;3.11;79.26
5609;BME280;2826;51.354;9.588;2023-04-26T03:44:53;98222.59;;;3.08;79.57
5609;BME280;2826;51.354;9.588;2023-04-26T03:47:21;98215.75;;;3.11;79.53
5609;BME280;2826;51.354;9.588;2023-04-26T03:49:48;98216.56;;;3.12;79.62
5609;BME280;2826;51.354;9.588;2023-04-26T03:52:14;98223.38;;;3.18;79.36
5609;BME280;2826;51.354;9.588;2023-04-26T03:54:41;98218.25;;;3.16;79.11
5609;BME280;2826;51.354;9.588;2023-04-26T03:57:08;98217.41;;;3.16;79.01
5609;BME280;2826;51.354;9.588;2023-04-26T03:59:36;98219.09;;;3.17;78.88
5609;BME280;2826;51.354;9.588;2023-04-26T04:02:03;98221.69;;;3.15;78.87
5609;BME280;2826;51.354;9.588;2023-04-26T04:04:30;98220.00;;;3.12;79.12
5609;BME280;2826;51.354;9.588;2023-04-26T04:06:58;98219.94;;;3.19;78.89
5609;BME280;2826;51.354;9.588;2023-04-26T04:09:25;98219.91;;;3.22;78.65
5609;BME280;2826;51.354;9.588;2023-04-26T04:11:52;98223.34;;;3.22;78.98
5609;BME280;2826;51.354;9.588;2023-04-26T04:14:19;98214.78;;;3.22;78.61
5609;BME280;2826;51.354;9.588;2023-04-26T04:16:47;98209.66;;;3.20;78.96
5609;BME280;2826;51.354;9.588;2023-04-26T04:19:13;98214.78;;;3.20;78.67
5609;BME280;2826;51.354;9.588;2023-04-26T04:21:40;98217.38;;;3.19;78.32
5609;BME280;2826;51.354;9.588;2023-04-26T04:24:08;98218.03;;;3.41;77.60
5609;BME280;2826;51.354;9.588;2023-04-26T04:26:35;98214.50;;;3.53;76.84
5609;BME280;2826;51.354;9.588;2023-04-26T04:29:02;98211.81;;;3.62;76.50
5609;BME280;2826;51.354;9.588;2023-04-26T04:31:35;98211.75;;;3.69;76.63
5609;BME280;2826;51.354;9.588;2023-04-26T04:34:03;98212.50;;;3.78;76.02
5609;BME280;2826;51.354;9.588;2023-04-26T04:36:30;98209.03;;;3.83;76.02
5609;BME280;2826;51.354;9.588;2023-04-26T04:38:57;98220.06;;;3.89;75.74
5609;BME280;2826;51.354;9.588;2023-04-26T04:41:25;98224.31;;;3.92;75.34
5609;BME280;2826;51.354;9.588;2023-04-26T04:43:52;98222.63;;;3.91;75.42
5609;BME280;2826;51.354;9.588;2023-04-26T04:46:20;98232.75;;;4.03;75.15
5609;BME280;2826;51.354;9.588;2023-04-26T04:48:47;98226.72;;;4.06;75.07
5609;BME280;2826;51.354;9.588;2023-04-26T04:51:15;98231.78;;;4.12;74.93
5609;BME280;2826;51.354;9.588;2023-04-26T04:53:42;98241.13;;;4.18;74.60
5609;BME280;2826;51.354;9.588;2023-04-26T04:56:08;98237.66;;;4.22;74.34
5609;BME280;2826;51.354;9.588;2023-04-26T04:58:35;98240.97;;;4.29;74.38
5609;BME280;2826;51.354;9.588;2023-04-26T05:01:02;98244.38;;;4.31;74.33
5609;BME280;2826;51.354;9.588;2023-04-26T05:03:38;98240.81;;;4.43;74.38
5609;BME280;2826;51.354;9.588;2023-04-26T05:06:07;98246.63;;;4.54;74.12
5609;BME280;2826;51.354;9.588;2023-04-26T05:08:35;98256.72;;;4.67;73.76
5609;BME280;2826;51.354;9.588;2023-04-26T05:11:06;98255.06;;;4.64;74.08
5609;BME280;2826;51.354;9.588;2023-04-26T05:13:33;98249.81;;;4.72;74.16
5609;BME280;2826;51.354;9.588;2023-04-26T05:15:59;98259.97;;;4.80;74.02
5609;BME280;2826;51.354;9.588;2023-04-26T05:18:26;98255.50;;;4.93;73.64
5609;BME280;2826;51.354;9.588;2023-04-26T05:20:52;98254.53;;;5.00;73.47
5609;BME280;2826;51.354;9.588;2023-04-26T05:23:19;98258.69;;;5.09;73.32
5609;BME280;2826;51.354;9.588;2023-04-26T05:25:47;98258.53;;;4.60;75.09
5609;BME280;2826;51.354;9.588;2023-04-26T05:28:43;98263.81;;;4.51;75.66
5609;BME280;2826;51.354;9.588;2023-04-26T05:31:22;98258.69;;;4.49;76.45
5609;BME280;2826;51.354;9.588;2023-04-26T05:34:03;98265.47;;;4.55;76.61
5609;BME280;2826;51.354;9.588;2023-04-26T05:36:35;98265.34;;;4.64;76.27
5609;BME280;2826;51.354;9.588;2023-04-26T05:39:02;98229.69;;;4.41;76.29
5609;BME280;2826;51.354;9.588;2023-04-26T05:41:31;98271.94;;;4.81;75.90
5609;BME280;2826;51.354;9.588;2023-04-26T05:43:58;98276.91;;;4.93;75.47
5609;BME280;2826;51.354;9.588;2023-04-26T05:46:25;98281.06;;;5.02;75.08
5609;BME280;2826;51.354;9.588;2023-04-26T05:48:51;98283.50;;;5.12;74.08
5609;BME280;2826;51.354;9.588;2023-04-26T05:51:18;98286.78;;;5.21;73.95
5609;BME280;2826;51.354;9.588;2023-04-26T05:53:45;98291.75;;;5.32;74.02
5609;BME280;2826;51.354;9.588;2023-04-26T05:56:12;98282.06;;;5.47;73.62
5609;BME280;2826;51.354;9.588;2023-04-26T05:58:40;98288.84;;;5.53;72.90
5609;BME280;2826;51.354;9.588;2023-04-26T06:01:08;98295.38;;;5.71;72.58
5609;BME280;2826;51.354;9.588;2023-04-26T06:03:37;98285.00;;;5.75;71.67
5609;BME280;2826;51.354;9.588;2023-04-26T06:06:04;98297.75;;;5.82;71.71
5609;BME280;2826;51.354;9.588;2023-04-26T06:08:34;98294.25;;;5.84;71.25
5609;BME280;2826;51.354;9.588;2023-04-26T06:11:01;98294.16;;;5.91;71.84
5609;BME280;2826;51.354;9.588;2023-04-26T06:13:28;98303.47;;;5.96;71.58
5609;BME280;2826;51.354;9.588;2023-04-26T06:15:58;98300.06;;;5.96;70.87
5609;BME280;2826;51.354;9.588;2023-04-26T06:18:25;98299.09;;;6.01;70.58
5609;BME280;2826;51.354;9.588;2023-04-26T06:20:51;98307.53;;;6.10;70.66
5609;BME280;2826;51.354;9.588;2023-04-26T06:23:18;98304.88;;;6.16;70.51
5609;BME280;2826;51.354;9.588;2023-04-26T06:25:45;98307.41;;;6.18;70.55
5609;BME280;2826;51.354;9.588;2023-04-26T06:28:12;98307.16;;;6.30;70.56
5609;BME280;2826;51.354;9.588;2023-04-26T06:30:38;98305.19;;;6.43;69.75
5609;BME280;2826;51.354;9.588;2023-04-26T06:33:07;98302.25;;;6.60;69.53
5609;BME280;2826;51.354;9.588;2023-04-26T06:35:38;98308.91;;;6.71;68.77
5609;BME280;2826;51.354;9.588;2023-04-26T06:38:06;98310.28;;;6.86;68.58
5609;BME280;2826;51.354;9.588;2023-04-26T06:40:33;98302.28;;;6.98;67.89
5609;BME280;2826;51.354;9.588;2023-04-26T06:43:01;98302.72;;;7.17;66.56
5609;BME280;2826;51.354;9.588;2023-04-26T06:45:37;98295.75;;;7.21;65.53
5609;BME280;2826;51.354;9.588;2023-04-26T06:48:04;98306.41;;;7.07;65.47
5609;BME280;2826;51.354;9.588;2023-04-26T06:50:36;98313.69;;;6.88;65.67
5609;BME280;2826;51.354;9.588;2023-04-26T06:53:03;98321.56;;;6.82;66.48
5609;BME280;2826;51.354;9.588;2023-04-26T06:55:29;98320.56;;;6.87;66.43
5609;BME280;2826;51.354;9.588;2023-04-26T06:57:56;98319.38;;;7.02;65.93
5609;BME280;2826;51.354;9.588;2023-04-26T07:00:23;98319.88;;;7.18;66.52
5609;BME280;2826;51.354;9.588;2023-04-26T07:02:49;98320.75;;;7.54;67.93
5609;BME280;2826;51.354;9.588;2023-04-26T07:05:17;98321.69;;;7.84;65.88
5609;BME280;2826;51.354;9.588;2023-04-26T07:07:45;98322.34;;;7.93;65.43
5609;BME280;2826;51.354;9.588;2023-04-26T07:10:12;98321.03;;;8.11;64.45
5609;BME280;2826;51.354;9.588;2023-04-26T07:12:38;98318.88;;;8.27;64.70
5609;BME280;2826;51.354;9.588;2023-04-26T07:15:06;98311.75;;;8.35;62.86
5609;BME280;2826;51.354;9.588;2023-04-26T07:17:33;98324.91;;;8.58;61.48
5609;BME280;2826;51.354;9.588;2023-04-26T07:20:00;98322.03;;;8.69;59.71
5609;BME280;2826;51.354;9.588;2023-04-26T07:22:27;98331.16;;;8.50;60.37
5609;BME280;2826;51.354;9.588;2023-04-26T07:24:54;98274.63;;;8.08;60.49
5609;BME280;2826;51.354;9.588;2023-04-26T07:27:22;98334.41;;;8.26;59.63
5609;BME280;2826;51.354;9.588;2023-04-26T07:29:52;98332.28;;;8.08;58.88
5609;BME280;2826;51.354;9.588;2023-04-26T07:32:19;98332.44;;;8.02;60.08
5609;BME280;2826;51.354;9.588;2023-04-26T07:34:46;98341.31;;;7.92;61.37
5609;BME280;2826;51.354;9.588;2023-04-26T07:37:12;98349.88;;;7.94;61.73
5609;BME280;2826;51.354;9.588;2023-04-26T07:39:39;98342.19;;;7.92;59.47
5609;BME280;2826;51.354;9.588;2023-04-26T07:42:07;98342.59;;;7.75;60.07
5609;BME280;2826;51.354;9.588;2023-04-26T07:44:33;98342.78;;;7.67;60.60
5609;BME280;2826;51.354;9.588;2023-04-26T07:47:00;98323.72;;;7.73;61.88
5609;BME280;2826;51.354;9.588;2023-04-26T07:49:26;98340.25;;;8.32;62.63
5609;BME280;2826;51.354;9.588;2023-04-26T07:51:53;98340.44;;;8.58;61.07
5609;BME280;2826;51.354;9.588;2023-04-26T07:54:20;98333.94;;;8.74;59.59
5609;BME280;2826;51.354;9.588;2023-04-26T07:56:47;98332.75;;;8.85;59.72
5609;BME280;2826;51.354;9.588;2023-04-26T07:59:15;98337.13;;;8.83;57.02
5609;BME280;2826;51.354;9.588;2023-04-26T08:01:41;98331.31;;;8.76;56.59
5609;BME280;2826;51.354;9.588;2023-04-26T08:04:08;98322.78;;;8.72;55.42
5609;BME280;2826;51.354;9.588;2023-04-26T08:06:36;98333.94;;;9.03;57.08
5609;BME280;2826;51.354;9.588;2023-04-26T08:09:03;98289.69;;;9.12;55.04
5609;BME280;2826;51.354;9.588;2023-04-26T08:11:30;98323.06;;;9.47;53.31
5609;BME280;2826;51.354;9.588;2023-04-26T08:13:57;98327.47;;;9.45;53.65
5609;BME280;2826;51.354;9.588;2023-04-26T08:16:25;98334.84;;;9.31;53.68
5609;BME280;2826;51.354;9.588;2023-04-26T08:18:52;98333.66;;;9.12;55.18
5609;BME280;2826;51.354;9.588;2023-04-26T08:21:18;98333.75;;;9.09;55.47
5609;BME280;2826;51.354;9.588;2023-04-26T08:23:45;98339.06;;;9.05;57.12
5609;BME280;2826;51.354;9.588;2023-04-26T08:26:12;98334.56;;;9.11;56.88
5609;BME280;2826;51.354;9.588;2023-04-26T08:28:38;98325.75;;;9.17;56.04
5609;BME280;2826;51.354;9.588;2023-04-26T08:31:05;98324.63;;;9.26;56.01
5609;BME280;2826;51.354;9.588;2023-04-26T08:33:33;98334.47;;;9.41;53.45
5609;BME280;2826;51.354;9.588;2023-04-26T08:35:59;98337.94;;;9.67;55.24
5609;BME280;2826;51.354;9.588;2023-04-26T08:38:26;98326.28;;;9.81;53.87
5609;BME280;2826;51.354;9.588;2023-04-26T08:40:54;98335.22;;;9.72;51.40
5609;BME280;2826;51.354;9.588;2023-04-26T08:43:27;98329.47;;;9.62;50.13
5609;BME280;2826;51.354;9.588;2023-04-26T08:45:54;98336.97;;;9.45;49.56
5609;BME280;2826;51.354;9.588;2023-04-26T08:48:22;98334.28;;;9.21;49.46
5609;BME280;2826;51.354;9.588;2023-04-26T08:50:51;98332.81;;;9.12;52.61
5609;BME280;2826;51.354;9.588;2023-04-26T08:53:17;98332.47;;;8.94;49.72
5609;BME280;2826;51.354;9.588;2023-04-26T08:55:47;98337.63;;;8.94;49.99
5609;BME280;2826;51.354;9.588;2023-04-26T08:58:14;98342.22;;;8.86;48.80
5609;BME280;2826;51.354;9.588;2023-04-26T09:00:42;98307.81;;;8.52;49.47
5609;BME280;2826;51.354;9.588;2023-04-26T09:03:10;98340.91;;;8.72;49.07
5609;BME280;2826;51.354;9.588;2023-04-26T09:05:57;98340.63;;;8.82;49.51
5609;BME280;2826;51.354;9.588;2023-04-26T09:08:25;98339.53;;;8.89;49.82
5609;BME280;2826;51.354;9.588;2023-04-26T09:10:52;98345.28;;;8.99;50.21
5609;BME280;2826;51.354;9.588;2023-04-26T09:13:19;98340.59;;;9.10;49.33
5609;BME280;2826;51.354;9.588;2023-04-26T09:15:47;98321.66;;;9.10;50.64
5609;BME280;2826;51.354;9.588;2023-04-26T09:18:17;98337.31;;;9.34;50.10
5609;BME280;2826;51.354;9.588;2023-04-26T09:20:44;98344.81;;;9.41;47.95
5609;BME280;2826;51.354;9.588;2023-04-26T09:23:12;98335.06;;;9.50;47.64
5609;BME280;2826;51.354;9.588;2023-04-26T09:25:41;98330.75;;;9.50;47.41
5609;BME280;2826;51.354;9.588;2023-04-26T09:28:19;98335.63;;;9.60;47.65
5609;BME280;2826;51.354;9.588;2023-04-26T09:30:47;98329.56;;;9.59;46.62
5609;BME280;2826;51.354;9.588;2023-04-26T09:33:14;98308.53;;;9.43;46.88
5609;BME280;2826;51.354;9.588;2023-04-26T09:35:41;98335.75;;;9.55;46.83
5609;BME280;2826;51.354;9.588;2023-04-26T09:38:09;98335.41;;;9.39;47.65
5609;BME280;2826;51.354;9.588;2023-04-26T09:40:40;98336.59;;;9.28;48.42
5609;BME280;2826;51.354;9.588;2023-04-26T09:43:08;98339.41;;;9.22;49.10
5609;BME280;2826;51.354;9.588;2023-04-26T09:45:44;98334.72;;;9.05;49.35
5609;BME280;2826;51.354;9.588;2023-04-26T09:48:12;98335.00;;;8.96;50.48
5609;BME280;2826;51.354;9.588;2023-04-26T09:50:41;98336.38;;;9.08;50.49
5609;BME280;2826;51.354;9.588;2023-04-26T09:53:08;98328.31;;;9.17;49.23
5609;BME280;2826;51.354;9.588;2023-04-26T09:55:35;98334.28;;;9.21;49.73
5609;BME280;2826;51.354;9.588;2023-04-26T09:58:10;98333.41;;;9.20;49.98
5609;BME280;2826;51.354;9.588;2023-04-26T10:00:37;98340.00;;;9.31;48.99
5609;BME280;2826;51.354;9.588;2023-04-26T10:03:07;98335.06;;;9.50;49.48
5609;BME280;2826;51.354;9.588;2023-04-26T10:05:35;98341.69;;;9.59;48.57
5609;BME280;2826;51.354;9.588;2023-04-26T10:08:02;98336.31;;;9.65;47.43
5609;BME280;2826;51.354;9.588;2023-04-26T10:10:29;98332.28;;;9.56;47.48
5609;BME280;2826;51.354;9.588;2023-04-26T10:12:57;98333.13;;;9.57;47.78
5609;BME280;2826;51.354;9.588;2023-04-26T10:15:25;98317.25;;;9.40;47.18
5609;BME280;2826;51.354;9.588;2023-04-26T10:17:51;98335.38;;;9.40;47.46
5609;BME280;2826;51.354;9.588;2023-04-26T10:20:19;98338.00;;;9.10;46.92
5609;BME280;2826;51.354;9.588;2023-04-26T10:22:50;98326.63;;;8.87;46.88
5609;BME280;2826;51.354;9.588;2023-04-26T10:25:18;98325.81;;;8.87;48.40
5609;BME280;2826;51.354;9.588;2023-04-26T10:27:51;98333.81;;;8.79;48.74
5609;BME280;2826;51.354;9.588;2023-04-26T10:30:21;98330.94;;;8.88;47.77
5609;BME280;2826;51.354;9.588;2023-04-26T10:33:16;98340.22;;;8.94;50.05
5609;BME280;2826;51.354;9.588;2023-04-26T10:36:06;98329.06;;;8.94;48.10
5609;BME280;2826;51.354;9.588;2023-04-26T10:38:35;98325.66;;;9.20;47.95
5609;BME280;2826;51.354;9.588;2023-04-26T10:41:27;98324.91;;;9.44;46.78
5609;BME280;2826;51.354;9.588;2023-04-26T10:43:56;98292.47;;;9.33;45.22
5609;BME280;2826;51.354;9.588;2023-04-26T10:46:37;98323.34;;;9.65;44.49
5609;BME280;2826;51.354;9.588;2023-04-26T10:49:16;98325.53;;;9.77;45.48
5609;BME280;2826;51.354;9.588;2023-04-26T10:52:07;98327.72;;;9.90;44.19
5609;BME280;2826;51.354;9.588;2023-04-26T10:54:48;98322.94;;;10.03;44.38
5609;BME280;2826;51.354;9.588;2023-04-26T10:57:16;98277.75;;;9.86;42.41
5609;BME280;2826;51.354;9.588;2023-04-26T11:00:24;98321.84;;;10.10;43.08
5609;BME280;2826;51.354;9.588;2023-04-26T11:02:58;98321.03;;;10.08;43.25
5609;BME280;2826;51.354;9.588;2023-04-26T11:05:40;98321.78;;;9.86;44.11
5609;BME280;2826;51.354;9.588;2023-04-26T11:08:15;98317.81;;;9.76;43.86
5609;BME280;2826;51.354;9.588;2023-04-26T11:10:42;98317.81;;;9.76;44.01
5609;BME280;2826;51.354;9.588;2023-04-26T11:13:08;98308.28;;;9.78;43.79
5609;BME280;2826;51.354;9.588;2023-04-26T11:15:35;98308.63;;;9.67;44.30
5609;BME280;2826;51.354;9.588;2023-04-26T11:18:02;98314.47;;;9.47;43.28
5609;BME280;2826;51.354;9.588;2023-04-26T11:20:30;98278.09;;;9.24;43.65
5609;BME280;2826;51.354;9.588;2023-04-26T11:22:59;98312.56;;;9.52;43.68
5609;BME280;2826;51.354;9.588;2023-04-26T11:25:26;98312.63;;;9.50;43.88
5609;BME280;2826;51.354;9.588;2023-04-26T11:27:58;98320.69;;;9.41;45.17
5609;BME280;2826;51.354;9.588;2023-04-26T11:30:27;98312.44;;;9.55;45.29
5609;BME280;2826;51.354;9.588;2023-04-26T11:32:53;98319.22;;;9.59;44.65
5609;BME280;2826;51.354;9.588;2023-04-26T11:35:21;98327.63;;;9.66;44.06
5609;BME280;2826;51.354;9.588;2023-04-26T11:37:47;98325.13;;;9.64;44.48
5609;BME280;2826;51.354;9.588;2023-04-26T11:40:17;98317.00;;;9.75;44.34
5609;BME280;2826;51.354;9.588;2023-04-26T11:42:44;98315.72;;;9.87;44.62
5609;BME280;2826;51.354;9.588;2023-04-26T11:45:11;98315.88;;;9.83;44.88
5609;BME280;2826;51.354;9.588;2023-04-26T11:47:40;98310.09;;;10.00;44.92
5609;BME280;2826;51.354;9.588;2023-04-26T11:50:08;98318.50;;;10.06;44.66
5609;BME280;2826;51.354;9.588;2023-04-26T11:52:35;98320.94;;;10.11;43.45
5609;BME280;2826;51.354;9.588;2023-04-26T11:55:04;98308.16;;;10.30;42.79
5609;BME280;2826;51.354;9.588;2023-04-26T11:57:33;98293.84;;;10.45;43.31
5609;BME280;2826;51.354;9.588;2023-04-26T12:00:07;98303.16;;;10.74;42.55
5609;BME280;2826;51.354;9.588;2023-04-26T12:02:36;98310.78;;;10.78;41.56
5609;BME280;2826;51.354;9.588;2023-04-26T12:05:03;98307.56;;;10.94;41.89
5609;BME280;2826;51.354;9.588;2023-04-26T12:07:36;98303.47;;;11.10;40.96
5609;BME280;2826;51.354;9.588;2023-04-26T12:10:16;98305.50;;;11.24;42.29
5609;BME280;2826;51.354;9.588;2023-04-26T12:12:46;98294.41;;;11.43;41.22
5609;BME280;2826;51.354;9.588;2023-04-26T12:15:13;98311.06;;;11.58;40.92
5609;BME280;2826;51.354;9.588;2023-04-26T12:17:50;98281.47;;;11.62;40.36
5609;BME280;2826;51.354;9.588;2023-04-26T12:20:17;98303.94;;;11.84;39.58
5609;BME280;2826;51.354;9.588;2023-04-26T12:22:58;98306.22;;;11.71;40.32
5609;BME280;2826;51.354;9.588;2023-04-26T12:25:26;98271.63;;;11.50;40.01
5609;BME280;2826;51.354;9.588;2023-04-26T12:27:54;98302.19;;;11.85;40.40
5609;BME280;2826;51.354;9.588;2023-04-26T12:30:20;98304.78;;;11.85;39.29
5609;BME280;2826;51.354;9.588;2023-04-26T12:33:00;98302.81;;;11.69;38.59
5609;BME280;2826;51.354;9.588;2023-04-26T12:35:26;98311.00;;;11.39;38.66
5609;BME280;2826;51.354;9.588;2023-04-26T12:37:53;98306.13;;;11.09;39.86
5609;BME280;2826;51.354;9.588;2023-04-26T12:40:21;98302.22;;;10.98;38.94
5609;BME280;2826;51.354;9.588;2023-04-26T12:42:48;98303.25;;;10.94;39.34
5609;BME280;2826;51.354;9.588;2023-04-26T12:45:18;98304.13;;;10.93;40.03
5609;BME280;2826;51.354;9.588;2023-04-26T12:47:45;98303.91;;;11.00;40.97
5609;BME280;2826;51.354;9.588;2023-04-26T12:50:12;98304.97;;;10.94;40.74
5609;BME280;2826;51.354;9.588;2023-04-26T12:52:41;98306.56;;;10.98;40.60
5609;BME280;2826;51.354;9.588;2023-04-26T12:55:09;98302.69;;;11.08;40.07
5609;BME280;2826;51.354;9.588;2023-04-26T12:57:37;98298.50;;;11.04;40.35
5609;BME280;2826;51.354;9.588;2023-04-26T13:00:05;98299.25;;;11.08;40.61
5609;BME280;2826;51.354;9.588;2023-04-26T13:02:35;98257.84;;;10.82;39.12
5609;BME280;2826;51.354;9.588;2023-04-26T13:05:02;98308.09;;;11.24;39.09
5609;BME280;2826;51.354;9.588;2023-04-26T13:07:31;98303.34;;;11.36;40.03
5609;BME280;2826;51.354;9.588;2023-04-26T13:09:58;98308.56;;;11.57;40.07
5609;BME280;2826;51.354;9.588;2023-04-26T13:12:24;98307.28;;;11.88;38.87
5609;BME280;2826;51.354;9.588;2023-04-26T13:14:51;98295.34;;;12.03;39.18
5609;BME280;2826;51.354;9.588;2023-04-26T13:17:17;98301.41;;;12.03;38.17
5609;BME280;2826;51.354;9.588;2023-04-26T13:19:45;98295.25;;;12.06;38.22
5609;BME280;2826;51.354;9.588;2023-04-26T13:22:12;98299.38;;;12.70;39.59
5609;BME280;2826;51.354;9.588;2023-04-26T13:24:39;98301.66;;;13.32;38.22
5609;BME280;2826;51.354;9.588;2023-04-26T13:27:05;98295.03;;;13.79;37.64
5609;BME280;2826;51.354;9.588;2023-04-26T13:29:32;98296.81;;;13.79;35.62
5609;BME280;2826;51.354;9.588;2023-04-26T13:31:59;98300.28;;;13.25;36.46
5609;BME280;2826;51.354;9.588;2023-04-26T13:34:27;98301.06;;;13.07;35.71
5609;BME280;2826;51.354;9.588;2023-04-26T13:36:56;98308.09;;;12.68;36.65
5609;BME280;2826;51.354;9.588;2023-04-26T13:39:26;98298.66;;;12.27;37.17